Time;durP1;ratioP1;P1;durP2;ratioP2;P2;SDS_P1;SDS_P2;PMS_P1;PMS_P2;Temp;Humidity;BMP_temperature;BMP_pressure;BME280_temperature;BME280_humidity;BME280_pressure;Samples;Min_cycle;Max_cycle;Signal;HPM_P1;HPM_P2
2021/01/28 00:01:29;;;;;;;61.50;19.17;;;;;;;5.65;100.00;101058.75;5222135;28;20603;-65
2021/01/28 00:03:59;;;;;;;56.53;19.85;;;;;;;5.68;100.00;101068.28;5221065;28;20504;-64
2021/01/28 00:06:29;;;;;;;66.70;19.08;;;;;;;5.66;100.00;101062.25;5221761;28;20039;-64
2021/01/28 00:09:00;;;;;;;58.63;18.52;;;;;;;5.68;100.00;101057.66;5221853;28;20032;-64
2021/01/28 00:11:30;;;;;;;55.08;18.35;;;;;;;5.69;100.00;101060.16;5222441;28;20017;-64
2021/01/28 00:14:01;;;;;;;54.75;17.75;;;;;;;5.67;100.00;101055.94;5220422;28;20033;-64
2021/01/28 00:16:31;;;;;;;55.00;17.33;;;;;;;5.63;100.00;101054.53;5223522;28;20115;-64
2021/01/28 00:19:02;;;;;;;47.03;15.90;;;;;;;5.63;100.00;101049.22;5215817;28;20389;-64
2021/01/28 00:21:33;;;;;;;46.05;16.02;;;;;;;5.65;100.00;101039.25;5214424;28;20558;-64
2021/01/28 00:24:03;;;;;;;41.92;15.02;;;;;;;5.66;100.00;101035.63;5223931;28;20031;-64
2021/01/28 00:26:34;;;;;;;51.20;17.90;;;;;;;5.67;100.00;101021.34;5225670;28;20025;-64
2021/01/28 00:29:05;;;;;;;49.08;15.80;;;;;;;5.64;100.00;101009.13;5224927;28;20031;-64
2021/01/28 00:31:35;;;;;;;40.10;14.48;;;;;;;5.60;100.00;101007.72;5225205;28;20060;-64
2021/01/28 00:34:05;;;;;;;45.78;15.45;;;;;;;5.56;100.00;101002.78;5224053;28;20047;-63
2021/01/28 00:36:36;;;;;;;45.85;15.60;;;;;;;5.56;100.00;101000.94;5218458;28;20013;-64
2021/01/28 00:39:07;;;;;;;38.90;16.92;;;;;;;5.53;100.00;100987.09;5224980;28;20029;-64
2021/01/28 00:41:37;;;;;;;43.80;14.05;;;;;;;5.49;100.00;100986.50;5225229;28;20020;-64
2021/01/28 00:44:07;;;;;;;37.88;13.90;;;;;;;5.47;100.00;100980.44;5223522;28;20063;-64
2021/01/28 00:46:39;;;;;;;44.92;15.35;;;;;;;5.47;100.00;100975.13;5225095;28;20029;-64
2021/01/28 00:49:10;;;;;;;44.80;14.73;;;;;;;5.51;100.00;100962.41;5224961;28;20021;-64
2021/01/28 00:51:40;;;;;;;44.60;15.75;;;;;;;5.46;100.00;100952.16;5225062;28;20121;-64
2021/01/28 00:54:11;;;;;;;38.92;14.95;;;;;;;5.45;100.00;100946.00;5223453;28;20021;-64
2021/01/28 00:56:41;;;;;;;55.72;15.40;;;;;;;5.43;100.00;100937.31;5224604;28;20326;-64
2021/01/28 00:59:12;;;;;;;45.08;15.88;;;;;;;5.40;100.00;100937.56;5224877;28;20078;-64
2021/01/28 01:01:42;;;;;;;43.88;14.95;;;;;;;5.44;100.00;100925.69;5225248;28;20037;-63
2021/01/28 01:04:12;;;;;;;38.90;14.60;;;;;;;5.46;100.00;100917.56;5224123;28;20017;-64
2021/01/28 01:06:43;;;;;;;42.90;14.73;;;;;;;5.45;100.00;100913.22;5224513;28;20028;-64
2021/01/28 01:09:13;;;;;;;36.85;14.80;;;;;;;5.43;100.00;100907.19;5223818;28;20139;-64
2021/01/28 01:11:44;;;;;;;45.50;14.63;;;;;;;5.41;100.00;100903.81;5225028;28;20021;-64
2021/01/28 01:14:14;;;;;;;39.30;14.80;;;;;;;5.44;100.00;100900.91;5223710;28;20520;-63
2021/01/28 01:16:45;;;;;;;35.13;13.93;;;;;;;5.41;100.00;100901.97;5224704;28;20488;-65
2021/01/28 01:19:16;;;;;;;37.67;14.65;;;;;;;5.42;100.00;100906.34;5213012;28;20025;-62
2021/01/28 01:21:47;;;;;;;35.05;13.65;;;;;;;5.48;100.00;100909.47;5214341;28;20071;-64
2021/01/28 01:24:17;;;;;;;34.70;14.27;;;;;;;5.48;100.00;100901.47;5223292;28;20423;-64
2021/01/28 01:26:48;;;;;;;34.28;13.25;;;;;;;5.48;100.00;100899.66;5224071;28;20112;-63
2021/01/28 01:29:18;;;;;;;42.67;14.30;;;;;;;5.41;100.00;100894.00;5224101;28;20420;-64
2021/01/28 01:31:49;;;;;;;36.22;13.95;;;;;;;5.45;100.00;100886.63;5222329;28;20503;-64
2021/01/28 01:34:19;;;;;;;39.40;14.50;;;;;;;5.44;100.00;100880.44;5220895;28;20473;-64
2021/01/28 01:36:50;;;;;;;34.25;13.57;;;;;;;5.43;100.00;100883.25;5218324;28;20071;-63
2021/01/28 01:39:20;;;;;;;33.35;13.65;;;;;;;5.46;100.00;100881.16;5224333;28;20113;-64
2021/01/28 01:41:51;;;;;;;33.90;14.80;;;;;;;5.44;100.00;100875.13;5223515;28;20025;-65
2021/01/28 01:44:21;;;;;;;32.15;13.35;;;;;;;5.47;100.00;100868.69;5223055;28;20100;-64
2021/01/28 01:46:54;;;;;;;29.95;12.90;;;;;;;5.46;100.00;100853.69;5223399;28;20055;-65
2021/01/28 01:49:25;;;;;;;30.58;13.40;;;;;;;5.43;100.00;100853.97;5224205;28;20052;-64
2021/01/28 01:51:55;;;;;;;32.40;13.27;;;;;;;5.44;100.00;100845.03;5222925;28;20067;-64
2021/01/28 01:54:33;;;;;;;34.05;13.02;;;;;;;5.43;100.00;100838.03;5223040;28;20033;-64
2021/01/28 01:57:10;;;;;;;36.40;14.40;;;;;;;5.45;100.00;100833.41;5222850;28;20104;-64
2021/01/28 01:59:47;;;;;;;31.90;13.32;;;;;;;5.44;100.00;100829.91;5223629;28;20056;-64
2021/01/28 02:02:21;;;;;;;32.47;12.88;;;;;;;5.49;100.00;100833.97;5223475;28;20078;-64
2021/01/28 02:04:59;;;;;;;34.58;13.50;;;;;;;5.46;100.00;100809.31;5223224;28;20052;-64
2021/01/28 02:07:30;;;;;;;31.20;12.57;;;;;;;5.44;100.00;100789.16;5222863;28;20031;-64
2021/01/28 02:10:08;;;;;;;36.25;14.00;;;;;;;5.40;100.00;100779.75;5223648;28;20484;-64
2021/01/28 02:12:52;;;;;;;31.95;13.77;;;;;;;5.39;100.00;100778.06;5222680;28;20039;-64
2021/01/28 02:15:41;;;;;;;33.67;13.85;;;;;;;5.44;100.00;100770.53;5223196;28;20052;-63
2021/01/28 02:18:12;;;;;;;32.25;14.02;;;;;;;5.41;100.00;100770.78;5223356;28;20098;-64
2021/01/28 02:21:00;;;;;;;35.00;13.55;;;;;;;5.42;100.00;100760.03;5211048;28;20031;-63
2021/01/28 02:23:39;;;;;;;31.77;13.15;;;;;;;5.43;100.00;100756.38;5222573;28;20019;-64
2021/01/28 02:26:10;;;;;;;38.00;14.68;;;;;;;5.43;100.00;100748.41;5222437;28;20028;-64
2021/01/28 02:28:40;;;;;;;37.92;14.57;;;;;;;5.42;100.00;100752.03;5223373;28;20024;-64
2021/01/28 02:31:11;;;;;;;40.10;14.63;;;;;;;5.42;100.00;100744.06;5223092;28;20060;-64
2021/01/28 02:33:53;;;;;;;35.00;15.05;;;;;;;5.39;100.00;100744.31;5222093;28;20159;-64
2021/01/28 02:36:32;;;;;;;40.67;15.00;;;;;;;5.40;100.00;100739.84;5214142;28;20091;-64
2021/01/28 02:39:07;;;;;;;35.00;14.38;;;;;;;5.38;100.00;100733.81;5222545;28;20025;-64
2021/01/28 02:41:41;;;;;;;36.53;15.48;;;;;;;5.39;100.00;100723.03;5222793;28;20023;-64
2021/01/28 02:44:11;;;;;;;37.70;15.45;;;;;;;5.42;100.00;100724.56;5222356;28;20027;-64
2021/01/28 02:46:42;;;;;;;39.53;16.00;;;;;;;5.40;100.00;100710.56;5222476;28;20021;-63
2021/01/28 02:49:16;;;;;;;37.28;14.98;;;;;;;5.39;100.00;100715.06;5222811;28;20512;-64
2021/01/28 02:51:47;;;;;;;39.92;15.27;;;;;;;5.41;100.00;100713.09;5222328;28;20402;-64
2021/01/28 02:54:19;;;;;;;35.38;14.48;;;;;;;5.38;100.00;100700.06;5222163;28;20546;-65
2021/01/28 02:56:49;;;;;;;36.72;15.00;;;;;;;5.40;100.00;100697.25;5222407;28;20507;-64
2021/01/28 02:59:20;;;;;;;41.90;16.88;;;;;;;5.38;100.00;100678.78;5222899;28;20025;-63
2021/01/28 03:01:59;;;;;;;42.15;14.77;;;;;;;5.38;100.00;100680.63;5222181;28;20484;-64
2021/01/28 03:04:29;;;;;;;43.92;15.80;;;;;;;5.38;100.00;100683.28;5221937;28;20017;-64
2021/01/28 03:07:00;;;;;;;45.35;15.75;;;;;;;5.38;100.00;100673.47;5222657;28;20086;-64
2021/01/28 03:09:36;;;;;;;46.70;16.58;;;;;;;5.40;100.00;100673.31;5221918;28;20052;-62
2021/01/28 03:12:09;;;;;;;43.35;15.35;;;;;;;5.39;100.00;100667.16;5218953;28;20060;-64
2021/01/28 03:14:43;;;;;;;43.45;14.88;;;;;;;5.38;100.00;100656.66;5220906;28;20029;-64
2021/01/28 03:17:14;;;;;;;42.47;15.48;;;;;;;5.40;100.00;100663.53;5221141;28;20029;-63
2021/01/28 03:19:44;;;;;;;40.42;15.95;;;;;;;5.40;100.00;100650.22;5207762;28;20071;-64
2021/01/28 03:22:15;;;;;;;40.60;15.32;;;;;;;5.43;100.00;100649.13;5216375;28;20036;-64
2021/01/28 03:24:45;;;;;;;40.60;15.15;;;;;;;5.43;100.00;100635.81;5221567;28;20024;-64
2021/01/28 03:27:16;;;;;;;42.10;15.40;;;;;;;5.45;100.00;100639.16;5221988;28;20021;-64
2021/01/28 03:29:47;;;;;;;37.17;13.52;;;;;;;5.43;100.00;100641.13;5222949;28;20039;-64
2021/01/28 03:32:17;;;;;;;38.28;15.23;;;;;;;5.46;100.00;100633.69;5221847;28;20054;-64
2021/01/28 03:34:48;;;;;;;41.25;15.65;;;;;;;5.48;100.00;100636.25;5221386;28;20391;-64
2021/01/28 03:37:18;;;;;;;45.78;15.50;;;;;;;5.49;100.00;100631.75;5221918;28;20108;-64
2021/01/28 03:39:49;;;;;;;48.00;15.88;;;;;;;5.51;100.00;100625.31;5222518;28;20393;-64
2021/01/28 03:42:19;;;;;;;40.45;15.32;;;;;;;5.49;100.00;100623.78;5221712;28;20108;-63
2021/01/28 03:44:50;;;;;;;40.67;14.38;;;;;;;5.48;100.00;100620.28;5221784;28;20044;-64
2021/01/28 03:47:20;;;;;;;39.88;14.35;;;;;;;5.45;100.00;100620.53;5221732;28;20488;-64
2021/01/28 03:49:51;;;;;;;35.03;14.63;;;;;;;5.48;100.00;100598.16;5222131;28;20027;-64
2021/01/28 03:52:21;;;;;;;41.08;15.63;;;;;;;5.47;100.00;100605.25;5224301;28;20036;-64
2021/01/28 03:54:52;;;;;;;33.83;14.75;;;;;;;5.48;100.00;100598.16;5225541;28;20514;-64
2021/01/28 03:57:22;;;;;;;34.95;12.85;;;;;;;5.48;100.00;100588.34;5226086;28;20033;-64
2021/01/28 03:59:53;;;;;;;37.67;13.90;;;;;;;5.46;100.00;100587.63;5225830;28;20028;-64
2021/01/28 04:02:23;;;;;;;37.55;13.18;;;;;;;5.48;100.00;100576.88;5212051;28;20032;-64
2021/01/28 04:04:53;;;;;;;40.85;14.70;;;;;;;5.45;100.00;100572.66;5224852;28;20444;-64
2021/01/28 04:07:24;;;;;;;33.88;13.70;;;;;;;5.47;100.00;100573.34;5216594;28;20044;-64
2021/01/28 04:09:54;;;;;;;36.53;13.90;;;;;;;5.46;100.00;100559.19;5224951;28;20451;-64
2021/01/28 04:12:25;;;;;;;38.78;14.45;;;;;;;5.47;100.00;100560.03;5224925;28;20028;-62
2021/01/28 04:14:55;;;;;;;36.33;12.88;;;;;;;5.46;100.00;100547.72;5225070;28;20539;-64
2021/01/28 04:17:26;;;;;;;33.90;12.90;;;;;;;5.49;100.00;100549.28;5225359;28;20028;-64
2021/01/28 04:19:57;;;;;;;37.92;13.43;;;;;;;5.48;100.00;100545.78;5214437;28;20099;-64
2021/01/28 04:22:27;;;;;;;38.72;14.30;;;;;;;5.48;100.00;100532.47;5225015;28;20070;-64
2021/01/28 04:24:58;;;;;;;35.63;13.27;;;;;;;5.47;100.00;100522.78;5224857;28;20060;-64
2021/01/28 04:27:28;;;;;;;33.95;13.85;;;;;;;5.48;100.00;100519.16;5225769;28;20025;-63
2021/01/28 04:29:59;;;;;;;36.05;12.77;;;;;;;5.46;100.00;100513.97;5225454;28;20032;-64
2021/01/28 04:32:30;;;;;;;33.70;12.98;;;;;;;5.48;100.00;100510.34;5224538;28;20028;-63
2021/01/28 04:35:00;;;;;;;37.97;13.40;;;;;;;5.49;100.00;100491.56;5223120;28;20480;-64
2021/01/28 04:37:31;;;;;;;34.78;14.00;;;;;;;5.51;100.00;100486.94;5221972;28;20491;-64
2021/01/28 04:40:04;;;;;;;38.17;13.57;;;;;;;5.50;100.00;100479.09;5225362;28;20107;-64
2021/01/28 04:42:44;;;;;;;36.35;13.02;;;;;;;5.49;100.00;100475.59;5224756;28;20032;-64
2021/01/28 04:45:21;;;;;;;41.55;13.93;;;;;;;5.49;100.00;100464.97;5224915;28;20044;-64
2021/01/28 04:47:55;;;;;;;35.30;13.68;;;;;;;5.49;100.00;100464.13;5224399;28;20106;-64
2021/01/28 04:50:30;;;;;;;37.20;13.75;;;;;;;5.47;100.00;100450.94;5225512;28;20611;-64
2021/01/28 04:53:08;;;;;;;34.72;13.00;;;;;;;5.45;100.00;100451.09;5223708;28;20029;-64
2021/01/28 04:55:43;;;;;;;31.63;12.40;;;;;;;5.43;100.00;100437.13;5225479;28;20033;-64
2021/01/28 04:58:14;;;;;;;33.25;12.77;;;;;;;5.43;100.00;100436.28;5224053;28;20163;-64
2021/01/28 05:00:45;;;;;;;37.33;14.27;;;;;;;5.42;100.00;100423.94;5225061;28;20029;-63
2021/01/28 05:03:22;;;;;;;35.22;14.30;;;;;;;5.40;100.00;100421.44;5222919;28;20128;-64
2021/01/28 05:05:56;;;;;;;30.40;12.90;;;;;;;5.38;100.00;100412.75;5224968;28;20078;-64
2021/01/28 05:08:27;;;;;;;33.13;12.32;;;;;;;5.39;100.00;100416.25;5224264;28;20492;-64
2021/01/28 05:11:00;;;;;;;33.22;13.10;;;;;;;5.37;100.00;100405.78;5224479;28;20029;-63
2021/01/28 05:13:34;;;;;;;35.85;12.95;;;;;;;5.36;100.00;100389.94;5223435;28;20107;-64
2021/01/28 05:16:30;;;;;;;29.23;12.33;;;;;;;5.32;100.00;100384.09;5224930;28;20032;-64
2021/01/28 05:19:02;;;;;;;;;;;;;;;5.32;100.00;100376.09;5223132;28;20032;-65
2021/01/28 05:21:42;;;;;;;29.25;11.73;;;;;;;5.32;100.00;100361.94;5219039;28;19908;-64
2021/01/28 05:24:30;;;;;;;33.65;13.02;;;;;;;5.29;100.00;100360.41;5223385;28;20031;-64
2021/01/28 05:27:18;;;;;;;33.13;13.18;;;;;;;5.26;100.00;100338.59;5224605;28;20029;-64
2021/01/28 05:29:48;;;;;;;33.35;12.32;;;;;;;5.27;100.00;100330.47;5223782;28;20098;-64
2021/01/28 05:32:38;;;;;;;34.25;12.73;;;;;;;5.24;100.00;100304.16;5224406;28;20020;-64
2021/01/28 05:35:28;;;;;;;30.10;12.15;;;;;;;5.25;100.00;100310.31;5223204;28;20381;-64
2021/01/28 05:38:24;;;;;;;28.92;12.05;;;;;;;5.23;100.00;100313.13;5211927;28;20029;-64
2021/01/28 05:40:57;;;;;;;31.23;11.82;;;;;;;5.23;100.00;100299.84;5223506;28;20493;-64
2021/01/28 05:43:29;;;;;;;32.80;13.45;;;;;;;5.26;100.00;100302.19;5223164;28;20021;-64
2021/01/28 05:46:10;;;;;;;37.20;13.30;;;;;;;5.24;100.00;100292.69;5223474;28;20113;-63
2021/01/28 05:48:42;;;;;;;33.63;13.20;;;;;;;5.21;100.00;100283.16;5223706;28;20044;-63
2021/01/28 05:51:18;;;;;;;34.00;12.48;;;;;;;5.21;100.00;100264.56;5224047;28;20102;-64
2021/01/28 05:53:57;;;;;;;33.58;12.77;;;;;;;5.19;100.00;100250.56;5222529;28;20029;-63
2021/01/28 05:56:31;;;;;;;30.83;12.90;;;;;;;5.20;100.00;100234.47;5211171;28;20029;-63
2021/01/28 05:59:08;;;;;;;34.20;11.93;;;;;;;5.23;100.00;100229.84;5223622;28;20028;-64
2021/01/28 06:02:09;;;;;;;30.52;12.80;;;;;;;5.23;100.00;100205.91;5224471;28;20119;-64
2021/01/28 06:04:57;;;;;;;31.27;12.02;;;;;;;5.23;100.00;100212.06;5207433;28;20377;-64
2021/01/28 06:07:41;;;;;;;32.85;12.95;;;;;;;5.21;100.00;100200.72;5223793;28;20036;-64
2021/01/28 06:10:49;;;;;;;30.88;12.52;;;;;;;5.22;100.00;100199.75;5223138;28;20029;-63
2021/01/28 06:13:33;;;;;;;27.52;11.88;;;;;;;5.20;100.00;100185.75;5211197;28;20159;-64
2021/01/28 06:16:13;;;;;;;32.00;12.10;;;;;;;5.21;100.00;100168.81;5222938;28;20113;-64
2021/01/28 06:19:01;;;;;;;29.67;12.65;;;;;;;5.20;100.00;100162.66;5217881;28;20025;-63
2021/01/28 06:21:58;;;;;;;32.60;12.38;;;;;;;5.22;100.00;100151.03;5213029;28;20116;-63
2021/01/28 06:24:47;;;;;;;28.88;12.27;;;;;;;5.23;100.00;100145.59;5222852;28;20384;-64
2021/01/28 06:27:35;;;;;;;29.45;12.48;;;;;;;5.23;100.00;100140.28;5223310;28;20036;-64
2021/01/28 06:30:14;;;;;;;27.05;12.10;;;;;;;5.24;100.00;100144.59;5222174;28;20032;-63
2021/01/28 06:32:44;;;;;;;29.90;12.95;;;;;;;5.24;100.00;100141.94;5222990;28;20025;-64
2021/01/28 06:35:31;;;;;;;28.58;12.13;;;;;;;5.22;100.00;100135.06;5222393;28;20028;-63
2021/01/28 06:38:22;;;;;;;31.23;13.13;;;;;;;5.21;100.00;100123.59;5223638;28;20043;-64
2021/01/28 06:40:58;;;;;;;33.70;13.95;;;;;;;5.20;100.00;100120.13;5223090;28;20033;-64
2021/01/28 06:43:46;;;;;;;32.05;13.25;;;;;;;5.23;100.00;100104.88;5222417;28;20021;-64
2021/01/28 06:46:28;;;;;;;31.92;14.45;;;;;;;5.22;100.00;100101.38;5222873;28;20017;-63
2021/01/28 06:49:18;;;;;;;27.98;12.77;;;;;;;5.23;100.00;100096.88;5223504;28;20025;-64
2021/01/28 06:52:02;;;;;;;31.33;13.68;;;;;;;5.25;100.00;100081.59;5222321;28;20033;-64
2021/01/28 06:54:45;;;;;;;34.15;12.80;;;;;;;5.25;100.00;100073.63;5221839;28;20377;-64
2021/01/28 06:57:32;;;;;;;31.27;13.43;;;;;;;5.24;100.00;100070.13;5222535;28;20028;-64
2021/01/28 07:00:16;;;;;;;31.70;12.57;;;;;;;5.24;100.00;100075.44;5209929;28;20420;-64
2021/01/28 07:02:59;;;;;;;32.17;13.40;;;;;;;5.26;100.00;100067.31;5219294;28;20121;-64
2021/01/28 07:05:40;;;;;;;31.52;12.50;;;;;;;5.23;100.00;100068.47;5213917;28;20096;-64
2021/01/28 07:08:23;;;;;;;33.03;12.50;;;;;;;5.23;100.00;100070.28;5223226;28;20031;-64
2021/01/28 07:10:53;;;;;;;32.13;13.23;;;;;;;5.25;100.00;100065.66;5222120;28;20025;-64
2021/01/28 07:13:28;;;;;;;33.78;13.10;;;;;;;5.25;100.00;100071.81;5222183;28;20028;-63
2021/01/28 07:16:17;;;;;;;34.20;13.80;;;;;;;5.29;100.00;100057.22;5221828;28;20028;-65
2021/01/28 07:18:52;;;;;;;37.33;13.13;;;;;;;5.30;100.00;100045.59;5222550;28;20043;-64
2021/01/28 07:21:29;;;;;;;;;;;;;;;5.29;100.00;100046.56;5213225;28;20033;-64
2021/01/28 07:24:02;;;;;;;35.35;13.60;;;;;;;5.33;100.00;100047.13;5221426;28;19919;-64
2021/01/28 07:26:45;;;;;;;36.50;13.88;;;;;;;5.33;100.00;100034.66;5225687;28;20110;-64
2021/01/28 07:29:50;;;;;;;34.20;12.77;;;;;;;5.35;100.00;100026.50;5226918;28;20036;-64
2021/01/28 07:32:21;;;;;;;30.40;11.68;;;;;;;5.35;100.00;100014.06;5225570;28;20025;-64
2021/01/28 07:35:22;;;;;;;33.92;12.50;;;;;;;5.37;100.00;100008.56;5226446;28;20025;-64
2021/01/28 07:37:55;;;;;;;29.00;11.85;;;;;;;5.42;100.00;100001.81;5226529;28;20032;-63
2021/01/28 07:40:53;;;;;;;35.78;12.73;;;;;;;5.47;100.00;100004.00;5226570;28;20112;-63
2021/01/28 07:43:27;;;;;;;22.80;10.13;;;;;;;5.51;100.00;99992.06;5225390;28;20484;-64
2021/01/28 07:46:17;;;;;;;34.33;12.10;;;;;;;5.54;100.00;99985.63;5226506;28;20078;-64
2021/01/28 07:49:09;;;;;;;30.38;11.02;;;;;;;5.59;100.00;99978.84;5214244;28;20381;-64
2021/01/28 07:51:48;;;;;;;24.55;9.63;;;;;;;5.64;100.00;99973.03;5225757;28;20544;-64
2021/01/28 07:54:24;;;;;;;25.83;9.80;;;;;;;5.69;100.00;99968.94;5225331;28;20055;-64
2021/01/28 07:56:57;;;;;;;23.83;10.80;;;;;;;5.73;100.00;99956.16;5226422;28;20057;-64
2021/01/28 07:59:52;;;;;;;42.95;22.17;;;;;;;5.86;100.00;99964.53;5225765;28;20025;-64
2021/01/28 08:02:32;;;;;;;24.45;10.38;;;;;;;5.89;100.00;99958.06;5225766;28;20032;-64
2021/01/28 08:05:03;;;;;;;22.52;8.48;;;;;;;5.92;100.00;99963.09;5213791;28;20052;-63
2021/01/28 08:07:39;;;;;;;18.25;8.93;;;;;;;5.96;100.00;99956.47;5225912;28;20467;-64
2021/01/28 08:10:18;;;;;;;20.00;8.15;;;;;;;6.01;100.00;99943.50;5225674;28;20036;-63
2021/01/28 08:12:53;;;;;;;14.70;7.72;;;;;;;6.08;100.00;99946.41;5224466;28;20035;-62
2021/01/28 08:15:37;;;;;;;32.30;16.83;;;;;;;6.23;100.00;99952.78;5226021;28;20540;-63
2021/01/28 08:18:19;;;;;;;26.60;12.90;;;;;;;6.31;100.00;99942.16;5223809;28;20048;-63
2021/01/28 08:21:08;;;;;;;14.07;6.80;;;;;;;6.37;100.00;99938.84;5213340;28;20032;-64
2021/01/28 08:23:41;;;;;;;12.27;6.10;;;;;;;6.47;100.00;99946.69;5224672;28;20222;-64
2021/01/28 08:26:22;;;;;;;13.75;6.95;;;;;;;6.51;100.00;99940.06;5225972;28;20063;-64
2021/01/28 08:29:07;;;;;;;11.88;5.60;;;;;;;6.73;100.00;99946.63;5225275;28;20487;-63
2021/01/28 08:31:43;;;;;;;10.05;5.22;;;;;;;7.00;100.00;99934.81;5225874;28;20025;-64
2021/01/28 08:34:17;;;;;;;;;;;;;;;7.20;100.00;99943.34;5225207;28;20499;-64
2021/01/28 08:36:51;;;;;;;19.65;9.77;;;;;;;7.43;100.00;99943.47;5225362;28;19933;-62
2021/01/28 08:39:25;;;;;;;14.18;7.38;;;;;;;7.57;100.00;99936.63;5225336;28;20028;-62
2021/01/28 08:42:03;;;;;;;21.92;12.38;;;;;;;7.79;100.00;99933.28;5225048;28;20374;-64
2021/01/28 08:44:34;;;;;;;25.05;11.02;;;;;;;7.82;100.00;99926.75;5224191;28;20108;-64
2021/01/28 08:47:11;;;;;;;22.08;8.55;;;;;;;7.91;100.00;99931.06;5225332;28;20021;-64
2021/01/28 08:49:58;;;;;;;41.38;15.45;;;;;;;7.95;100.00;99941.25;5224610;28;20037;-64
2021/01/28 08:52:29;;;;;;;14.95;7.85;;;;;;;8.01;100.00;99934.38;5225023;28;20025;-64
2021/01/28 08:55:08;;;;;;;10.85;6.35;;;;;;;8.12;100.00;99935.84;5224110;28;20120;-63
2021/01/28 08:57:39;;;;;;;9.27;5.88;;;;;;;8.13;100.00;99937.50;5224591;28;20021;-64
2021/01/28 09:00:11;;;;;;;11.95;5.70;;;;;;;8.15;100.00;99930.16;5224600;28;20029;-63
2021/01/28 09:02:45;;;;;;;10.38;6.03;;;;;;;8.15;100.00;99927.50;5221860;28;20021;-64
2021/01/28 09:05:16;;;;;;;12.85;7.90;;;;;;;8.14;100.00;99933.84;5213934;28;20036;-64
2021/01/28 09:07:55;;;;;;;13.30;6.20;;;;;;;8.15;100.00;99931.00;5224607;28;20031;-64
2021/01/28 09:10:39;;;;;;;14.73;6.68;;;;;;;8.15;100.00;99930.16;5224023;28;20109;-64
2021/01/28 09:13:25;;;;;;;13.25;7.28;;;;;;;8.21;100.00;99926.78;5212462;28;20017;-62
2021/01/28 09:16:18;;;;;;;17.15;6.93;;;;;;;8.37;100.00;99932.09;5224760;28;20035;-64
2021/01/28 09:18:51;;;;;;;12.13;6.72;;;;;;;8.39;100.00;99924.75;5218499;28;20025;-64
2021/01/28 09:21:24;;;;;;;14.00;6.68;;;;;;;8.38;100.00;99922.22;5214851;28;20040;-64
2021/01/28 09:23:57;;;;;;;13.15;7.07;;;;;;;8.44;100.00;99921.56;5223407;28;20118;-64
2021/01/28 09:26:32;;;;;;;12.75;6.82;;;;;;;8.47;100.00;99923.84;5224764;28;20064;-64
2021/01/28 09:29:09;;;;;;;12.97;7.20;;;;;;;8.49;100.00;99922.69;5223568;28;20515;-63
2021/01/28 09:31:40;;;;;;;12.43;6.55;;;;;;;8.57;100.00;99925.31;5224675;28;20028;-64
2021/01/28 09:34:13;;;;;;;11.85;7.15;;;;;;;8.65;100.00;99931.63;5223166;28;20027;-64
2021/01/28 09:36:54;;;;;;;13.95;7.55;;;;;;;8.64;100.00;99941.50;5224326;28;20473;-64
2021/01/28 09:39:41;;;;;;;14.65;7.35;;;;;;;8.77;100.00;99923.00;5223768;28;20029;-64
2021/01/28 09:42:21;;;;;;;11.90;5.97;;;;;;;8.78;100.00;99937.22;5224299;28;20135;-64
2021/01/28 09:44:53;;;;;;;13.18;7.50;;;;;;;8.77;100.00;99932.88;5222918;28;20021;-64
2021/01/28 09:47:27;;;;;;;14.82;7.43;;;;;;;8.76;100.00;99936.56;5224745;28;20033;-64
2021/01/28 09:50:01;;;;;;;12.40;7.45;;;;;;;8.86;100.00;99937.16;5223102;28;20025;-63
2021/01/28 09:52:36;;;;;;;12.95;6.65;;;;;;;8.95;100.00;99929.94;5224052;28;20055;-64
2021/01/28 09:55:10;;;;;;;15.10;6.07;;;;;;;8.97;100.00;99922.56;5223046;28;20036;-64
2021/01/28 09:57:40;;;;;;;13.52;6.82;;;;;;;9.08;100.00;99930.97;5224026;28;20489;-63
2021/01/28 10:00:14;;;;;;;14.52;8.20;;;;;;;9.13;100.00;99929.63;5223761;28;20029;-62
2021/01/28 10:02:49;;;;;;;13.00;6.63;;;;;;;9.15;100.00;99927.63;5220526;28;20329;-63
2021/01/28 10:05:21;;;;;;;10.15;6.60;;;;;;;9.22;100.00;99932.06;5213721;28;20024;-63
2021/01/28 10:07:51;;;;;;;10.18;6.30;;;;;;;9.24;100.00;99924.69;5223756;28;20025;-64
2021/01/28 10:10:25;;;;;;;16.48;9.50;;;;;;;9.22;100.00;99925.88;5223171;28;20367;-63
2021/01/28 10:12:59;;;;;;;10.65;6.03;;;;;;;9.27;100.00;99934.19;5222445;28;20057;-63
2021/01/28 10:15:30;;;;;;;8.80;5.25;;;;;;;9.24;100.00;99943.44;5223082;28;20493;-64
2021/01/28 10:18:00;;;;;;;14.55;7.13;;;;;;;9.36;100.00;99951.03;5223191;28;20033;-64
2021/01/28 10:20:32;;;;;;;9.55;5.22;;;;;;;9.29;100.00;99940.22;5207408;28;20034;-64
2021/01/28 10:23:04;;;;;;;9.68;6.20;;;;;;;9.35;100.00;99944.84;5223477;28;20067;-63
2021/01/28 10:25:35;;;;;;;10.43;5.90;;;;;;;9.38;100.00;99946.31;5223061;28;20431;-63
2021/01/28 10:28:05;;;;;;;8.57;5.65;;;;;;;9.40;100.00;99952.34;5223770;28;20029;-62
2021/01/28 10:30:36;;;;;;;16.88;9.43;;;;;;;9.43;100.00;99959.97;5222916;28;20032;-63
2021/01/28 10:33:07;;;;;;;13.32;6.97;;;;;;;9.43;100.00;99963.50;5222478;28;20435;-64
2021/01/28 10:35:38;;;;;;;10.95;6.55;;;;;;;9.52;100.00;99965.09;5222556;28;20017;-63
2021/01/28 10:38:09;;;;;;;9.60;6.45;;;;;;;9.52;100.00;99958.91;5223334;28;20082;-64
2021/01/28 10:40:39;;;;;;;15.27;9.63;;;;;;;9.53;100.00;99963.25;5222712;28;20044;-63
2021/01/28 10:43:10;;;;;;;10.70;6.55;;;;;;;9.56;100.00;99963.72;5222440;28;20025;-64
2021/01/28 10:45:41;;;;;;;7.45;4.85;;;;;;;9.58;100.00;99969.72;5222678;28;20048;-63
2021/01/28 10:48:12;;;;;;;7.03;4.95;;;;;;;9.55;100.00;99958.56;5222761;28;20477;-62
2021/01/28 10:50:43;;;;;;;13.63;8.50;;;;;;;9.58;100.00;99961.69;5222783;28;20032;-63
2021/01/28 10:53:14;;;;;;;15.88;7.72;;;;;;;9.65;100.00;99959.13;5222422;28;20065;-63
2021/01/28 10:55:45;;;;;;;21.85;15.27;;;;;;;9.65;100.00;99956.44;5222401;28;20055;-62
2021/01/28 10:58:15;;;;;;;35.92;24.10;;;;;;;9.71;100.00;99958.41;5222842;28;20056;-63
2021/01/28 11:00:46;;;;;;;24.02;16.67;;;;;;;9.77;100.00;99954.97;5221946;28;20017;-64
2021/01/28 11:03:16;;;;;;;7.57;4.57;;;;;;;9.80;100.00;99951.94;5222255;28;20016;-64
2021/01/28 11:05:46;;;;;;;9.02;6.40;;;;;;;9.83;100.00;99956.94;5222768;28;20035;-63
2021/01/28 11:08:17;;;;;;;9.70;7.10;;;;;;;9.81;100.00;99953.59;5222867;28;20025;-64
2021/01/28 11:10:48;;;;;;;8.63;5.45;;;;;;;9.82;100.00;99952.59;5222529;28;20017;-64
2021/01/28 11:13:18;;;;;;;9.07;5.50;;;;;;;9.88;100.00;99963.59;5221540;28;20031;-62
2021/01/28 11:15:48;;;;;;;7.63;5.68;;;;;;;9.88;100.00;99947.50;5222910;28;20549;-64
2021/01/28 11:18:19;;;;;;;9.77;6.15;;;;;;;9.80;100.00;99954.63;5219489;28;20029;-64
2021/01/28 11:20:49;;;;;;;7.32;4.28;;;;;;;9.82;100.00;99955.28;5209546;28;20079;-64
2021/01/28 11:23:20;;;;;;;12.07;6.43;;;;;;;9.89;100.00;99946.50;5221718;28;20100;-64
2021/01/28 11:25:50;;;;;;;12.13;5.60;;;;;;;9.90;100.00;99950.84;5221947;28;20489;-62
2021/01/28 11:28:21;;;;;;;12.27;5.97;;;;;;;9.93;100.00;99956.66;5222441;28;20497;-64
2021/01/28 11:30:51;;;;;;;11.63;6.45;;;;;;;9.94;100.00;99953.00;5222454;28;20070;-63
2021/01/28 11:33:22;;;;;;;44.40;16.73;;;;;;;9.95;100.00;99954.66;5221226;28;20085;-64
2021/01/28 11:35:53;;;;;;;141.73;48.47;;;;;;;9.98;100.00;99945.38;5222656;28;20028;-64
2021/01/28 11:38:23;;;;;;;15.90;8.68;;;;;;;10.06;100.00;99946.13;5221665;28;20036;-63
2021/01/28 11:40:54;;;;;;;12.55;6.10;;;;;;;10.12;100.00;99947.25;5222635;28;20017;-64
2021/01/28 11:43:24;;;;;;;12.23;6.68;;;;;;;10.12;100.00;99953.44;5222026;28;20020;-64
2021/01/28 11:45:55;;;;;;;9.63;5.55;;;;;;;10.02;100.00;99947.53;5222237;28;20021;-62
2021/01/28 11:48:25;;;;;;;11.65;7.10;;;;;;;10.09;100.00;99952.97;5222142;28;20032;-64
2021/01/28 11:50:56;;;;;;;10.80;5.47;;;;;;;10.10;100.00;99960.84;5222003;28;20036;-64